Time;durP1;ratioP1;P1;durP2;ratioP2;P2;SDS_P1;SDS_P2;PMS_P1;PMS_P2;Temp;Humidity;BMP_temperature;BMP_pressure;BME280_temperature;BME280_humidity;BME280_pressure;Samples;Min_cycle;Max_cycle;Signal;HPM_P1;HPM_P2
2023/03/01 00:02:19;;;;;;;26.87;16.00;;;-0.70;99.90;;;;;;5046662;28;20197;-74
2023/03/01 00:04:44;;;;;;;25.87;15.30;;;-0.70;99.90;;;;;;5040876;28;20227;-74
2023/03/01 00:07:10;;;;;;;21.17;15.70;;;-0.70;99.90;;;;;;5046093;28;20224;-79
2023/03/01 00:09:36;;;;;;;25.10;15.33;;;-0.70;99.90;;;;;;5047151;28;20198;-76
2023/03/01 00:12:03;;;;;;;21.00;14.33;;;-0.70;99.90;;;;;;5046363;28;20204;-74
2023/03/01 00:14:28;;;;;;;22.47;15.30;;;-0.70;99.90;;;;;;5049132;28;20197;-79
2023/03/01 00:16:54;;;;;;;18.20;13.93;;;-0.80;99.90;;;;;;5047260;28;20194;-73
2023/03/01 00:19:21;;;;;;;19.20;13.70;;;-0.80;99.90;;;;;;5051334;28;20299;-79
2023/03/01 00:21:47;;;;;;;23.27;14.33;;;-0.80;99.90;;;;;;5046923;28;20206;-77
2023/03/01 00:24:13;;;;;;;24.40;14.70;;;-0.80;99.90;;;;;;5050896;28;20199;-78
2023/03/01 00:26:39;;;;;;;23.23;14.93;;;-0.80;99.90;;;;;;5052721;28;20566;-78
2023/03/01 00:29:05;;;;;;;19.80;14.13;;;-0.90;99.90;;;;;;5048476;28;20212;-75
2023/03/01 00:31:32;;;;;;;19.07;13.70;;;-0.90;99.90;;;;;;5049137;28;20197;-76
2023/03/01 00:34:00;;;;;;;20.80;15.37;;;-0.90;99.90;;;;;;5051939;28;20286;-72
2023/03/01 00:36:28;;;;;;;21.60;14.87;;;-0.90;99.90;;;;;;5051494;28;20728;-75
2023/03/01 00:38:54;;;;;;;30.03;17.93;;;-0.90;99.90;;;;;;5045965;28;20272;-77
2023/03/01 00:41:22;;;;;;;35.60;18.03;;;-0.90;99.90;;;;;;5050002;28;20224;-75
2023/03/01 00:43:49;;;;;;;23.17;16.37;;;-1.00;99.90;;;;;;5051515;28;20269;-73
2023/03/01 00:46:17;;;;;;;24.87;16.03;;;-1.10;99.90;;;;;;5045143;28;20671;-74
2023/03/01 00:48:43;;;;;;;26.97;16.57;;;-1.10;99.90;;;;;;5049950;28;20684;-77
2023/03/01 00:51:20;;;;;;;24.73;16.17;;;-1.20;99.90;;;;;;5045898;28;20316;-78
2023/03/01 00:53:46;;;;;;;25.10;16.80;;;-1.30;99.90;;;;;;5048793;28;20208;-76
2023/03/01 00:56:13;;;;;;;30.40;17.73;;;-1.30;99.90;;;;;;5050130;28;20213;-76
2023/03/01 00:58:39;;;;;;;27.63;19.37;;;-1.40;99.90;;;;;;5048987;28;20214;-75
2023/03/01 01:01:16;;;;;;;31.80;19.40;;;-1.40;99.90;;;;;;5045952;28;20628;-76
2023/03/01 01:03:56;;;;;;;31.27;20.70;;;-1.40;99.90;;;;;;5048270;28;20200;-76
2023/03/01 01:06:25;;;;;;;28.37;18.83;;;-1.40;99.90;;;;;;5049118;28;20606;-63
2023/03/01 01:08:52;;;;;;;25.17;19.57;;;-1.40;99.90;;;;;;5052038;28;20208;-62
2023/03/01 01:11:18;;;;;;;28.27;18.63;;;-1.30;99.90;;;;;;5047265;28;20211;-62
2023/03/01 01:13:45;;;;;;;26.17;17.73;;;-1.30;99.90;;;;;;5044881;28;20271;-60
2023/03/01 01:16:11;;;;;;;28.97;18.47;;;-1.20;99.90;;;;;;5047097;28;20216;-58
2023/03/01 01:18:37;;;;;;;28.13;16.60;;;-1.10;99.90;;;;;;5051848;28;20673;-60
2023/03/01 01:21:08;;;;;;;24.83;16.60;;;-1.00;99.90;;;;;;5049290;28;20199;-58
2023/03/01 01:23:34;;;;;;;25.27;15.50;;;-1.10;99.90;;;;;;5050175;28;20630;-57
2023/03/01 01:26:05;;;;;;;21.80;13.87;;;-1.30;99.90;;;;;;5046228;28;20230;-66
2023/03/01 01:28:30;;;;;;;23.00;15.10;;;-1.40;99.90;;;;;;5052337;28;20261;-60
2023/03/01 01:30:56;;;;;;;20.33;14.37;;;-1.30;99.90;;;;;;5049393;28;20280;-61
2023/03/01 01:33:21;;;;;;;20.30;14.17;;;-1.30;99.90;;;;;;5049556;28;20246;-64
2023/03/01 01:35:47;;;;;;;19.47;13.57;;;-1.20;99.90;;;;;;5051152;28;20215;-61
2023/03/01 01:38:12;;;;;;;16.40;14.00;;;-1.30;99.90;;;;;;5050757;28;20248;-61
2023/03/01 01:40:45;;;;;;;19.63;12.67;;;-1.40;99.90;;;;;;5049890;28;20218;-62
2023/03/01 01:43:22;;;;;;;18.57;12.60;;;-1.50;99.90;;;;;;5048733;28;20672;-62
2023/03/01 01:45:48;;;;;;;17.43;13.27;;;-1.60;99.90;;;;;;5045417;28;20680;-62
2023/03/01 01:48:20;;;;;;;23.67;14.20;;;-1.60;99.90;;;;;;5048584;28;20197;-62
2023/03/01 01:50:53;;;;;;;22.33;13.47;;;-1.70;99.90;;;;;;5045205;28;20269;-61
2023/03/01 01:53:19;;;;;;;21.73;14.10;;;-1.70;99.90;;;;;;5047009;28;20213;-61
2023/03/01 01:55:51;;;;;;;22.13;14.43;;;-1.60;99.90;;;;;;5047599;28;20290;-62
2023/03/01 01:58:20;;;;;;;21.73;13.03;;;-1.60;99.90;;;;;;5049272;28;20201;-62
2023/03/01 02:00:46;;;;;;;21.70;13.83;;;-1.60;99.90;;;;;;5046760;28;20284;-62
2023/03/01 02:03:17;;;;;;;18.10;12.70;;;-1.60;99.90;;;;;;5045532;28;20604;-63
2023/03/01 02:06:03;;;;;;;20.60;13.63;;;-1.60;99.90;;;;;;5051058;28;20203;-61
2023/03/01 02:08:31;;;;;;;15.77;13.30;;;-1.60;99.90;;;;;;5045185;28;20204;-68
2023/03/01 02:10:59;;;;;;;18.33;13.03;;;-1.60;99.90;;;;;;5048647;28;20600;-65
2023/03/01 02:13:25;;;;;;;24.50;13.10;;;-1.60;99.90;;;;;;5044553;28;20203;-64
2023/03/01 02:15:51;;;;;;;19.33;12.97;;;-1.50;99.90;;;;;;5049214;28;20200;-62
2023/03/01 02:18:19;;;;;;;20.47;14.10;;;-1.50;99.90;;;;;;5048393;28;20212;-63
2023/03/01 02:21:08;;;;;;;18.80;13.73;;;-1.60;99.90;;;;;;5049298;28;20775;-62
2023/03/01 02:23:34;;;;;;;20.43;14.20;;;-1.60;99.90;;;;;;5046571;28;20215;-62
2023/03/01 02:26:08;;;;;;;16.23;13.37;;;-1.50;99.90;;;;;;5047914;28;20206;-61
2023/03/01 02:28:36;;;;;;;19.57;13.13;;;-1.50;99.90;;;;;;5051992;28;20788;-61
2023/03/01 02:33:49;;;;;;;19.37;12.60;;;-1.60;99.90;;;;;;5055725;28;20628;-61
2023/03/01 02:36:30;;;;;;;18.17;14.00;;;-1.70;99.90;;;;;;5055060;28;20563;-61
2023/03/01 02:38:59;;;;;;;17.70;12.27;;;-1.80;99.90;;;;;;5048809;28;20499;-61
2023/03/01 02:41:28;;;;;;;17.93;13.60;;;-1.80;99.90;;;;;;5048708;28;20202;-61
2023/03/01 02:43:53;;;;;;;21.17;14.40;;;-1.90;99.90;;;;;;5045691;28;20529;-61
2023/03/01 02:46:25;;;;;;;17.83;13.37;;;-1.90;99.90;;;;;;5045459;28;20583;-61
2023/03/01 02:48:56;;;;;;;19.70;13.80;;;-1.80;99.90;;;;;;5046308;28;20203;-61
2023/03/01 02:51:43;;;;;;;19.00;15.13;;;-1.80;99.90;;;;;;5046857;28;22259;-61
2023/03/01 02:54:27;;;;;;;19.10;13.93;;;-1.80;99.90;;;;;;5046779;28;20323;-61
2023/03/01 02:56:53;;;;;;;21.30;14.07;;;-1.80;99.90;;;;;;5043398;28;20234;-61
2023/03/01 02:59:22;;;;;;;17.50;14.37;;;-1.80;99.90;;;;;;5044614;28;20649;-62
2023/03/01 03:01:48;;;;;;;16.90;13.83;;;-1.90;99.90;;;;;;5047602;28;20855;-62
2023/03/01 03:04:20;;;;;;;17.70;14.60;;;-1.90;99.90;;;;;;5046048;28;20204;-62
2023/03/01 03:06:48;;;;;;;16.97;12.83;;;-1.90;99.90;;;;;;5042885;28;20228;-62
2023/03/01 03:09:15;;;;;;;18.10;13.50;;;-1.90;99.90;;;;;;5050209;28;20357;-60
2023/03/01 03:11:42;;;;;;;20.37;13.10;;;-1.90;99.90;;;;;;5045729;28;20226;-60
2023/03/01 03:14:12;;;;;;;15.53;12.33;;;-1.90;99.90;;;;;;5045363;28;20196;-62
2023/03/01 03:16:42;;;;;;;20.73;13.83;;;-1.90;99.90;;;;;;5049261;28;20208;-62
2023/03/01 03:19:08;;;;;;;15.77;12.10;;;-1.90;99.90;;;;;;5044157;28;20221;-61
2023/03/01 03:21:34;;;;;;;21.97;12.87;;;-1.90;99.90;;;;;;5044047;28;20192;-63
2023/03/01 03:23:59;;;;;;;21.10;13.47;;;-2.00;99.90;;;;;;5029615;28;20286;-62
2023/03/01 03:26:25;;;;;;;19.17;13.07;;;-2.00;99.90;;;;;;5043888;28;20224;-62
2023/03/01 03:28:51;;;;;;;17.10;11.93;;;-2.20;99.90;;;;;;5044442;28;20532;-62
2023/03/01 03:31:16;;;;;;;24.50;13.33;;;-2.30;99.90;;;;;;5030250;28;20736;-61
2023/03/01 03:33:42;;;;;;;19.07;13.73;;;-2.30;99.90;;;;;;5047650;28;20734;-61
2023/03/01 03:36:12;;;;;;;21.33;13.60;;;-2.20;99.90;;;;;;5028260;28;20246;-64
2023/03/01 03:38:38;;;;;;;19.80;13.57;;;-2.20;99.90;;;;;;5044856;28;20297;-62
2023/03/01 03:41:07;;;;;;;21.73;14.87;;;-2.20;99.90;;;;;;5042172;28;20200;-63
2023/03/01 03:43:34;;;;;;;22.43;14.87;;;-2.20;99.90;;;;;;5045029;28;20308;-60
2023/03/01 03:46:01;;;;;;;21.03;13.93;;;-2.30;99.90;;;;;;5044889;28;20579;-60
2023/03/01 03:48:26;;;;;;;22.57;14.83;;;-2.40;99.90;;;;;;5046872;28;20245;-61
2023/03/01 03:50:54;;;;;;;19.23;14.50;;;-2.40;99.90;;;;;;5047705;28;20203;-61
2023/03/01 03:53:21;;;;;;;20.97;14.67;;;-2.40;99.90;;;;;;5059445;28;20248;-61
2023/03/01 03:55:49;;;;;;;20.27;14.47;;;-2.40;99.90;;;;;;5047527;28;20642;-61
2023/03/01 03:58:16;;;;;;;18.50;12.70;;;-2.40;99.90;;;;;;5051347;28;20260;-61
2023/03/01 04:00:44;;;;;;;15.03;11.90;;;-2.40;99.90;;;;;;5051107;28;20506;-61
2023/03/01 04:03:11;;;;;;;20.47;13.90;;;-2.50;99.90;;;;;;5051222;28;20335;-61
2023/03/01 04:05:37;;;;;;;17.67;12.53;;;-2.50;99.90;;;;;;5051691;28;20206;-62
2023/03/01 04:08:06;;;;;;;19.00;13.00;;;-2.40;99.90;;;;;;5047561;28;20527;-62
2023/03/01 04:10:38;;;;;;;18.70;13.67;;;-2.40;99.90;;;;;;5048534;28;20317;-62
2023/03/01 04:13:05;;;;;;;26.87;15.13;;;-2.30;99.90;;;;;;5049303;28;20216;-61
2023/03/01 04:15:32;;;;;;;27.37;15.07;;;-2.30;99.90;;;;;;5053418;28;20197;-62
2023/03/01 04:17:58;;;;;;;20.13;14.87;;;-2.30;99.90;;;;;;5053781;28;20743;-64
2023/03/01 04:20:28;;;;;;;20.20;14.60;;;-2.40;99.90;;;;;;5054035;28;20235;-67
2023/03/01 04:23:10;;;;;;;25.90;16.60;;;-2.50;99.90;;;;;;5051683;28;20215;-62
2023/03/01 04:25:45;;;;;;;26.20;17.73;;;-2.70;99.90;;;;;;5047931;28;20946;-62
2023/03/01 04:28:10;;;;;;;26.90;18.97;;;-2.80;99.90;;;;;;5044419;28;20210;-62
2023/03/01 04:30:38;;;;;;;33.37;19.87;;;-2.90;99.90;;;;;;5049097;28;20195;-62
2023/03/01 04:33:05;;;;;;;30.70;16.97;;;-2.80;99.90;;;;;;5048568;28;20207;-61
2023/03/01 04:35:31;;;;;;;26.57;17.70;;;-2.80;99.90;;;;;;5046960;28;20191;-60
2023/03/01 04:37:57;;;;;;;26.57;18.53;;;-2.80;99.90;;;;;;5048840;28;20341;-61
2023/03/01 04:40:23;;;;;;;25.10;15.73;;;-2.70;99.90;;;;;;5051080;28;20257;-61
2023/03/01 04:42:49;;;;;;;21.23;15.03;;;-2.70;99.90;;;;;;5052228;28;20230;-61
2023/03/01 04:45:14;;;;;;;24.50;17.40;;;-2.60;99.90;;;;;;5050995;28;20224;-61
2023/03/01 04:47:42;;;;;;;25.93;15.83;;;-2.60;99.90;;;;;;5046826;28;20192;-60
2023/03/01 04:50:09;;;;;;;23.90;16.30;;;-2.50;99.90;;;;;;5047252;28;20615;-61
2023/03/01 04:52:35;;;;;;;23.97;14.70;;;-2.50;99.90;;;;;;5048638;28;20200;-61
2023/03/01 04:55:01;;;;;;;24.47;16.03;;;-2.50;99.90;;;;;;5048475;28;20246;-62
2023/03/01 04:57:26;;;;;;;20.83;14.80;;;-2.60;99.90;;;;;;5047799;28;20287;-62
2023/03/01 04:59:52;;;;;;;26.33;15.97;;;-2.50;99.90;;;;;;5047690;28;20210;-60
2023/03/01 05:02:17;;;;;;;25.87;17.17;;;-2.60;99.90;;;;;;5046208;28;20208;-61
2023/03/01 05:04:43;;;;;;;24.47;16.03;;;-2.70;99.90;;;;;;5051601;28;20214;-61
2023/03/01 05:07:08;;;;;;;24.40;16.93;;;-2.70;99.90;;;;;;5047026;28;20207;-61
2023/03/01 05:09:34;;;;;;;31.43;18.87;;;-2.70;99.90;;;;;;5051920;28;20201;-61
2023/03/01 05:11:59;;;;;;;28.57;17.53;;;-2.80;99.90;;;;;;5047283;28;20915;-61
2023/03/01 05:14:25;;;;;;;32.33;17.43;;;-2.80;99.90;;;;;;5044740;28;20212;-62
2023/03/01 05:16:50;;;;;;;35.47;22.13;;;-2.80;99.90;;;;;;5048049;28;20211;-62
2023/03/01 05:19:16;;;;;;;38.07;19.93;;;-2.80;99.90;;;;;;5052555;28;20215;-62
2023/03/01 05:24:28;;;;;;;39.47;21.40;;;-2.90;99.90;;;;;;5048771;28;20268;-62
2023/03/01 05:26:53;;;;;;;38.03;19.07;;;-3.00;99.90;;;;;;5057649;28;20499;-62
2023/03/01 05:29:24;;;;;;;33.50;19.43;;;-3.00;99.90;;;;;;5057255;28;20290;-62
2023/03/01 05:31:55;;;;;;;27.03;16.50;;;-2.90;99.90;;;;;;5055565;28;20340;-60
2023/03/01 05:34:35;;;;;;;29.87;17.77;;;-2.80;99.90;;;;;;5056931;28;20731;-61
2023/03/01 05:37:01;;;;;;;28.20;17.10;;;-2.70;99.90;;;;;;5052206;28;20199;-62
2023/03/01 05:39:28;;;;;;;29.90;18.63;;;-2.60;99.90;;;;;;5054926;28;20580;-61
2023/03/01 05:41:55;;;;;;;29.40;16.80;;;-2.60;99.90;;;;;;5057098;28;20198;-62
2023/03/01 05:44:21;;;;;;;23.37;14.40;;;-2.60;99.90;;;;;;5056891;28;20983;-62
2023/03/01 05:46:47;;;;;;;23.73;14.20;;;-2.60;99.90;;;;;;5056702;28;20198;-61
2023/03/01 05:49:13;;;;;;;22.13;14.07;;;-2.70;99.90;;;;;;5056239;28;20203;-62
2023/03/01 05:51:40;;;;;;;25.73;14.70;;;-2.70;99.90;;;;;;5051081;28;20223;-64
2023/03/01 05:54:08;;;;;;;27.17;15.20;;;-2.70;99.90;;;;;;5038058;28;20203;-62
2023/03/01 05:56:34;;;;;;;22.77;14.60;;;-2.70;99.90;;;;;;5056809;28;20204;-62
2023/03/01 05:59:01;;;;;;;19.53;15.37;;;-2.60;99.90;;;;;;5056137;28;20215;-62
2023/03/01 06:01:26;;;;;;;27.37;15.17;;;-2.70;99.90;;;;;;5056324;28;20208;-62
2023/03/01 06:03:52;;;;;;;20.27;13.47;;;-2.60;99.90;;;;;;5049636;28;20618;-62
2023/03/01 06:06:17;;;;;;;25.10;14.37;;;-2.60;99.90;;;;;;5050008;28;20206;-62
2023/03/01 06:08:43;;;;;;;25.90;14.87;;;-2.60;99.90;;;;;;5045556;28;22375;-62
2023/03/01 06:11:09;;;;;;;26.93;14.17;;;-2.60;99.90;;;;;;5049026;28;20273;-61
2023/03/01 06:13:34;;;;;;;20.57;15.17;;;-2.50;99.90;;;;;;5056155;28;20298;-61
2023/03/01 06:16:00;;;;;;;25.93;17.10;;;-2.50;99.90;;;;;;5053864;28;20695;-62
2023/03/01 06:18:25;;;;;;;19.97;13.70;;;-2.50;99.90;;;;;;5056388;28;20207;-61
2023/03/01 06:20:54;;;;;;;26.57;14.40;;;-2.50;99.90;;;;;;5055594;28;20288;-62
2023/03/01 06:23:20;;;;;;;20.07;14.73;;;-2.50;99.90;;;;;;5050921;28;20236;-61
2023/03/01 06:25:45;;;;;;;18.50;13.83;;;-2.40;99.90;;;;;;5055670;28;20233;-61
2023/03/01 06:28:11;;;;;;;22.37;16.33;;;-2.40;99.90;;;;;;5053999;28;20205;-61
2023/03/01 06:30:36;;;;;;;29.87;17.07;;;-2.30;99.90;;;;;;5056007;28;20706;-62
2023/03/01 06:33:02;;;;;;;28.53;17.93;;;-2.30;99.90;;;;;;5054875;28;20420;-63
2023/03/01 06:35:29;;;;;;;24.77;15.73;;;-2.20;99.90;;;;;;5043574;28;20371;-62
2023/03/01 06:37:56;;;;;;;30.07;17.50;;;-2.20;99.90;;;;;;5050299;28;20207;-62
2023/03/01 06:40:22;;;;;;;25.70;16.73;;;-2.00;99.90;;;;;;5053741;28;20314;-61
2023/03/01 06:42:49;;;;;;;21.90;16.03;;;-2.00;99.90;;;;;;5048894;28;20840;-63
2023/03/01 06:45:15;;;;;;;37.97;25.43;;;-1.90;99.90;;;;;;5055084;28;20229;-63
2023/03/01 06:47:40;;;;;;;31.60;19.00;;;-2.00;99.90;;;;;;5052726;28;20616;-62
2023/03/01 06:50:06;;;;;;;28.70;18.33;;;-2.00;99.90;;;;;;5049027;28;20252;-62
2023/03/01 06:52:32;;;;;;;23.80;15.67;;;-2.00;99.90;;;;;;5046207;28;20592;-62
2023/03/01 06:54:58;;;;;;;25.03;16.90;;;-2.00;99.90;;;;;;5046019;28;20367;-61
2023/03/01 06:57:23;;;;;;;32.13;18.30;;;-2.00;99.90;;;;;;5045390;28;20202;-62
2023/03/01 06:59:49;;;;;;;24.23;17.50;;;-1.90;99.90;;;;;;5047289;28;20229;-62
2023/03/01 07:02:15;;;;;;;22.43;15.93;;;-1.90;99.90;;;;;;5045111;28;20237;-62
2023/03/01 07:04:40;;;;;;;26.83;17.80;;;-1.80;99.90;;;;;;5047386;28;20197;-62
2023/03/01 07:07:06;;;;;;;31.97;19.53;;;-1.80;99.90;;;;;;5046684;28;20282;-63
2023/03/01 07:09:32;;;;;;;33.30;20.17;;;-1.70;99.90;;;;;;5044703;28;20670;-63
2023/03/01 07:11:58;;;;;;;30.23;19.37;;;-1.60;99.90;;;;;;5048388;28;20203;-63
2023/03/01 07:14:25;;;;;;;32.77;19.73;;;-1.60;99.90;;;;;;5046998;28;21045;-63
2023/03/01 07:16:51;;;;;;;36.57;18.73;;;-1.60;99.90;;;;;;5050574;28;20208;-62
2023/03/01 07:19:16;;;;;;;26.60;19.57;;;-1.50;99.90;;;;;;5046013;28;20214;-61
2023/03/01 07:21:42;;;;;;;23.57;17.87;;;-1.40;99.90;;;;;;5047922;28;20204;-61
2023/03/01 07:24:08;;;;;;;29.47;19.10;;;-1.20;99.90;;;;;;5054823;28;20187;-61
2023/03/01 07:26:33;;;;;;;31.07;17.50;;;-1.00;99.90;;;;;;5054747;28;20201;-64
2023/03/01 07:29:00;;;;;;;21.47;15.87;;;-0.90;99.90;;;;;;5054123;28;20208;-63
2023/03/01 07:31:27;;;;;;;24.33;17.77;;;-0.70;99.90;;;;;;5051358;28;20199;-62
2023/03/01 07:33:53;;;;;;;26.70;16.03;;;-0.60;99.90;;;;;;5052666;28;20224;-63
2023/03/01 07:36:19;;;;;;;28.70;17.50;;;-0.50;99.90;;;;;;5042676;28;20260;-64
2023/03/01 07:38:45;;;;;;;26.50;16.73;;;-0.40;99.90;;;;;;5044908;28;20298;-63
2023/03/01 07:41:10;;;;;;;30.27;18.97;;;-0.20;99.90;;;;;;5050016;28;20202;-64
2023/03/01 07:43:36;;;;;;;25.30;16.77;;;0.00;99.90;;;;;;5044911;28;20334;-63
2023/03/01 07:46:02;;;;;;;24.93;16.27;;;0.10;99.90;;;;;;5045571;28;20196;-65
2023/03/01 07:48:29;;;;;;;25.03;14.20;;;0.20;99.90;;;;;;5042585;28;20542;-62
2023/03/01 07:50:57;;;;;;;23.63;14.73;;;0.30;99.90;;;;;;5044527;28;20685;-62
2023/03/01 07:53:22;;;;;;;22.33;15.03;;;0.50;99.90;;;;;;5049774;28;20673;-63
2023/03/01 07:55:48;;;;;;;28.37;15.80;;;0.60;99.90;;;;;;5044559;28;20197;-63
2023/03/01 07:58:13;;;;;;;21.30;15.03;;;0.60;99.90;;;;;;5043324;28;20193;-63
2023/03/01 08:00:39;;;;;;;23.10;15.53;;;0.70;99.90;;;;;;5049108;28;20208;-64
2023/03/01 08:03:04;;;;;;;22.03;16.27;;;0.80;99.90;;;;;;5045408;28;20213;-63
2023/03/01 08:05:30;;;;;;;19.30;13.53;;;1.00;99.90;;;;;;5045150;28;20187;-63
2023/03/01 08:07:55;;;;;;;15.90;12.97;;;1.10;99.90;;;;;;5049858;28;20201;-63
2023/03/01 08:10:21;;;;;;;24.50;13.30;;;1.20;99.90;;;;;;5046075;28;20286;-64
2023/03/01 08:12:46;;;;;;;18.97;12.00;;;1.30;99.90;;;;;;5048636;28;20202;-64
2023/03/01 08:15:12;;;;;;;14.30;11.47;;;1.40;99.90;;;;;;5049010;28;20676;-68
2023/03/01 08:17:40;;;;;;;13.83;11.47;;;1.50;99.90;;;;;;5045198;28;20252;-72
2023/03/01 08:20:06;;;;;;;17.10;11.63;;;1.70;99.90;;;;;;5059677;28;20698;-64
2023/03/01 08:22:32;;;;;;;14.37;11.83;;;1.80;99.90;;;;;;5062453;28;20187;-64
2023/03/01 08:24:57;;;;;;;15.83;11.67;;;2.00;99.90;;;;;;5062481;28;20196;-64
2023/03/01 08:27:23;;;;;;;14.03;9.67;;;2.10;99.90;;;;;;5061358;28;20177;-64
2023/03/01 08:29:49;;;;;;;14.87;10.03;;;2.30;99.90;;;;;;5062252;28;20657;-64
2023/03/01 08:32:14;;;;;;;13.27;10.90;;;2.30;99.90;;;;;;5062274;28;20186;-64
2023/03/01 08:34:39;;;;;;;9.80;8.63;;;2.40;99.90;;;;;;5063968;28;20214;-63
2023/03/01 08:37:05;;;;;;;16.57;10.63;;;2.50;99.90;;;;;;5065663;28;20192;-62
2023/03/01 08:39:30;;;;;;;11.03;8.87;;;2.60;99.90;;;;;;5059535;28;20284;-71
2023/03/01 08:41:56;;;;;;;16.40;9.73;;;2.70;99.90;;;;;;5045391;28;20710;-64
2023/03/01 08:44:22;;;;;;;12.83;9.03;;;2.80;99.90;;;;;;5045357;28;20246;-61
2023/03/01 08:46:49;;;;;;;18.53;9.60;;;2.80;99.90;;;;;;5046072;28;20183;-77
2023/03/01 08:49:17;;;;;;;14.67;8.30;;;2.90;99.90;;;;;;5046151;28;20278;-67
2023/03/01 08:51:44;;;;;;;10.00;7.93;;;2.90;99.90;;;;;;5045865;28;20204;-74
2023/03/01 08:54:18;;;;;;;9.97;7.60;;;3.00;99.90;;;;;;5045678;28;20179;-72
2023/03/01 08:56:44;;;;;;;14.20;7.33;;;3.00;99.90;;;;;;5045263;28;20614;-75
2023/03/01 08:59:11;;;;;;;12.33;6.57;;;3.30;99.90;;;;;;5057682;28;20182;-63
2023/03/01 09:01:37;;;;;;;6.53;4.77;;;3.40;99.90;;;;;;5064736;28;20265;-62
2023/03/01 09:04:03;;;;;;;6.53;4.87;;;3.40;99.90;;;;;;5064272;28;20648;-62
2023/03/01 09:06:33;;;;;;;8.17;4.97;;;3.50;99.90;;;;;;5064511;28;20769;-63
2023/03/01 09:08:59;;;;;;;8.10;4.17;;;3.60;99.60;;;;;;5064621;28;20182;-62
2023/03/01 09:11:24;;;;;;;6.57;5.23;;;3.60;99.30;;;;;;5064553;28;20663;-64
2023/03/01 09:13:50;;;;;;;7.07;5.10;;;3.70;99.20;;;;;;5064711;28;20536;-63
2023/03/01 09:16:19;;;;;;;7.63;4.80;;;3.80;99.50;;;;;;5064337;28;20664;-63
2023/03/01 09:18:48;;;;;;;6.30;5.10;;;3.80;98.80;;;;;;5059152;28;20179;-63
2023/03/01 09:21:15;;;;;;;10.10;5.30;;;3.70;98.60;;;;;;5064229;28;20274;-69
2023/03/01 09:23:44;;;;;;;5.90;4.73;;;3.70;98.80;;;;;;5064608;28;20237;-69
2023/03/01 09:26:11;;;;;;;9.40;5.30;;;3.80;98.80;;;;;;5064916;28;20581;-70
2023/03/01 09:28:37;;;;;;;12.40;4.90;;;3.90;98.90;;;;;;5065167;28;20816;-70
2023/03/01 09:31:03;;;;;;;7.37;5.53;;;3.90;98.30;;;;;;5064458;28;20182;-70
2023/03/01 09:33:30;;;;;;;7.63;4.67;;;3.90;98.50;;;;;;5064804;28;20182;-67
2023/03/01 09:36:00;;;;;;;6.60;4.93;;;3.90;98.40;;;;;;5063784;28;20217;-73
2023/03/01 09:38:26;;;;;;;6.70;5.33;;;4.00;98.40;;;;;;5064758;28;20182;-75
2023/03/01 09:40:52;;;;;;;7.90;5.63;;;4.00;98.70;;;;;;5064497;28;20210;-76
2023/03/01 09:43:21;;;;;;;8.93;5.43;;;4.10;98.90;;;;;;5064488;28;20289;-75
2023/03/01 09:45:49;;;;;;;9.47;5.83;;;4.10;98.50;;;;;;5063579;28;20178;-74
2023/03/01 09:48:18;;;;;;;10.17;4.87;;;4.20;98.00;;;;;;5064641;28;20461;-73
2023/03/01 09:50:47;;;;;;;7.23;5.07;;;4.30;98.20;;;;;;5053977;28;20214;-78
2023/03/01 09:53:30;;;;;;;7.73;5.03;;;4.30;98.20;;;;;;5050719;28;20672;-73
2023/03/01 09:56:04;;;;;;;5.17;4.67;;;4.50;98.20;;;;;;5048146;28;20207;-75
2023/03/01 09:58:52;;;;;;;5.93;4.53;;;4.50;97.60;;;;;;5042206;28;20197;-75
2023/03/01 10:01:36;;;;;;;7.20;4.53;;;4.60;97.40;;;;;;5044330;28;20705;-75
2023/03/01 10:04:44;;;;;;;6.00;3.33;;;4.60;97.20;;;;;;5046862;28;20552;-76
2023/03/01 10:07:10;;;;;;;6.30;4.13;;;4.80;96.00;;;;;;5044750;28;20191;-79
2023/03/01 10:09:39;;;;;;;4.83;3.43;;;4.80;95.80;;;;;;5048278;28;20210;-82
2023/03/01 10:12:13;;;;;;;4.67;4.27;;;4.80;95.20;;;;;;5052129;28;20198;-75
2023/03/01 10:15:02;;;;;;;5.20;4.33;;;5.00;94.80;;;;;;5044805;28;20198;-75
2023/03/01 10:17:33;;;;;;;5.97;3.50;;;5.10;95.00;;;;;;5049964;28;20194;-74
2023/03/01 10:20:17;;;;;;;6.00;3.30;;;5.30;94.40;;;;;;5048825;28;20245;-74
2023/03/01 10:22:46;;;;;;;4.57;3.83;;;5.40;93.90;;;;;;5047522;28;20198;-78
2023/03/01 10:25:15;;;;;;;5.13;4.33;;;5.40;93.60;;;;;;5046553;28;20202;-77
2023/03/01 10:27:51;;;;;;;8.67;4.47;;;5.60;94.60;;;;;;5051501;28;20210;-77
2023/03/01 10:30:28;;;;;;;7.53;4.30;;;5.60;93.50;;;;;;5046022;28;20206;-76
2023/03/01 10:32:54;;;;;;;5.80;4.37;;;5.60;92.80;;;;;;5048191;28;20210;-78
2023/03/01 10:35:19;;;;;;;7.87;4.27;;;5.60;92.70;;;;;;5048637;28;20285;-78
2023/03/01 10:38:06;;;;;;;8.27;4.50;;;5.70;93.00;;;;;;5046470;28;20206;-77
2023/03/01 10:40:34;;;;;;;8.87;4.60;;;5.80;93.20;;;;;;5047924;28;20731;-77
2023/03/01 10:43:05;;;;;;;5.37;4.87;;;6.00;93.00;;;;;;5044128;28;20207;-76
2023/03/01 10:45:37;;;;;;;8.83;4.97;;;6.10;93.10;;;;;;5045607;28;20848;-77
2023/03/01 10:48:26;;;;;;;5.20;4.33;;;6.20;92.50;;;;;;5049890;28;20198;-60
2023/03/01 10:50:57;;;;;;;7.80;4.40;;;6.10;91.30;;;;;;5045886;28;20201;-61
2023/03/01 10:53:43;;;;;;;8.10;4.57;;;6.10;91.00;;;;;;5048935;28;20269;-61
2023/03/01 10:56:13;;;;;;;6.60;4.40;;;6.40;91.50;;;;;;5046821;28;20206;-60
2023/03/01 10:58:41;;;;;;;5.20;4.43;;;6.70;92.10;;;;;;5049546;28;20248;-62
2023/03/01 11:01:29;;;;;;;5.17;4.63;;;6.90;90.30;;;;;;5040694;28;20228;-60
2023/03/01 11:04:13;;;;;;;6.57;4.03;;;7.10;89.00;;;;;;5048480;28;20546;-61
2023/03/01 11:06:40;;;;;;;4.80;3.80;;;7.30;89.70;;;;;;5044819;28;20208;-61
2023/03/01 11:09:20;;;;;;;5.30;4.50;;;7.70;86.80;;;;;;5042954;28;20757;-60
2023/03/01 11:11:51;;;;;;;9.20;3.33;;;8.00;84.00;;;;;;5047601;28;20321;-60
2023/03/01 11:14:21;;;;;;;6.37;3.23;;;8.00;82.10;;;;;;5049834;28;20202;-61
2023/03/01 11:17:05;;;;;;;6.17;3.50;;;8.30;84.30;;;;;;5045820;28;20202;-61
2023/03/01 11:19:32;;;;;;;3.87;3.50;;;8.50;82.00;;;;;;5043040;28;20209;-61
2023/03/01 11:22:03;;;;;;;8.33;4.50;;;8.60;78.70;;;;;;5044956;28;20206;-60
2023/03/01 11:24:41;;;;;;;4.87;4.37;;;8.70;78.80;;;;;;5044895;28;20201;-63
2023/03/01 11:27:27;;;;;;;7.77;4.60;;;8.70;79.40;;;;;;5047209;28;20190;-61
2023/03/01 11:29:58;;;;;;;6.17;3.73;;;9.00;77.60;;;;;;5043915;28;20202;-63
2023/03/01 11:32:27;;;;;;;5.57;3.67;;;8.80;70.30;;;;;;5040256;28;20202;-61
2023/03/01 11:35:12;;;;;;;6.10;4.20;;;8.90;73.20;;;;;;5044882;28;20219;-61
2023/03/01 11:37:46;;;;;;;7.10;3.50;;;9.20;74.00;;;;;;5046447;28;20228;-60
2023/03/01 11:40:15;;;;;;;5.97;4.20;;;9.30;71.40;;;;;;5046052;28;20215;-61
2023/03/01 11:43:06;;;;;;;5.80;3.80;;;9.50;70.40;;;;;;5042980;28;20655;-62
2023/03/01 11:45:49;;;;;;;4.27;2.70;;;9.60;69.10;;;;;;5051081;28;20768;-61
2023/03/01 11:48:30;;;;;;;4.53;3.17;;;9.90;63.80;;;;;;5047811;28;20202;-61
2023/03/01 11:51:00;;;;;;;3.70;3.10;;;10.20;64.70;;;;;;5044889;28;20239;-61
2023/03/01 11:53:37;;;;;;;5.00;3.33;;;10.40;61.30;;;;;;5044598;28;20208;-61
2023/03/01 11:56:20;;;;;;;5.20;3.20;;;10.40;59.50;;;;;;5048430;28;20202;-61
2023/03/01 11:58:52;;;;;;;4.63;3.27;;;10.90;58.90;;;;;;5045354;28;20291;-62
2023/03/01 12:01:40;;;;;;;4.70;3.57;;;10.50;59.10;;;;;;5043824;28;20200;-62
2023/03/01 12:04:15;;;;;;;4.07;3.67;;;10.80;58.80;;;;;;5049414;28;20286;-61
2023/03/01 12:06:59;;;;;;;4.70;3.73;;;11.30;57.30;;;;;;5046732;28;20695;-61
2023/03/01 12:09:56;;;;;;;4.87;3.47;;;11.30;58.40;;;;;;5044559;28;20568;-62
2023/03/01 12:12:37;;;;;;;4.00;3.20;;;11.40;55.80;;;;;;5056743;28;20200;-78
2023/03/01 12:15:47;;;;;;;6.17;4.00;;;11.60;54.50;;;;;;5058601;28;20197;-62
2023/03/01 12:18:41;;;;;;;3.90;3.57;;;12.00;54.00;;;;;;5048963;28;20197;-61
2023/03/01 12:21:27;;;;;;;4.30;3.90;;;12.30;52.30;;;;;;5056265;28;20208;-62
2023/03/01 12:24:11;;;;;;;4.43;3.40;;;12.50;53.40;;;;;;5058951;28;20205;-62
2023/03/01 12:26:54;;;;;;;5.23;4.33;;;13.20;51.90;;;;;;5054110;28;20735;-60
2023/03/01 12:29:57;;;;;;;3.77;3.47;;;13.40;51.80;;;;;;5058303;28;20300;-60
2023/03/01 12:32:46;;;;;;;3.80;3.33;;;12.30;47.30;;;;;;5058278;28;20251;-61
2023/03/01 12:35:36;;;;;;;5.37;4.13;;;12.80;49.10;;;;;;5045489;28;20246;-62
2023/03/01 12:38:25;;;;;;;4.77;3.63;;;13.10;49.10;;;;;;5053441;28;20263;-69
2023/03/01 12:41:21;;;;;;;4.77;2.90;;;13.40;48.30;;;;;;5047038;28;20207;-63
2023/03/01 12:43:58;;;;;;;4.87;3.83;;;13.60;47.40;;;;;;5047151;28;20223;-81
2023/03/01 12:46:40;;;;;;;6.50;3.93;;;12.90;46.70;;;;;;5049065;28;20289;-81
2023/03/01 12:49:28;;;;;;;4.30;3.60;;;13.00;47.60;;;;;;5052793;28;20281;-82
2023/03/01 12:52:12;;;;;;;4.93;3.47;;;13.60;45.70;;;;;;5043816;28;20218;-82
2023/03/01 12:54:38;;;;;;;4.60;3.40;;;14.10;44.00;;;;;;5054091;28;20248;-82
2023/03/01 12:57:18;;;;;;;3.67;2.90;;;14.20;44.40;;;;;;5046712;28;20237;-78